Kezdőlap
METAR-TAF:

METAR-TAF

Repülőterek :

Libreville, Gabon

földrajzi szélesség: 00-27N, földrajzi hosszúság: 009-25E, magasság: 12 m

Jelenlegi meteorológiai megfigyelések

A jelentés 22 perccel ezelõtt készült, 01:30 UTC
Déli szél 7 kt, dél-délkeleti és dél-délnyugati között változik
Hőmérséklet 24°C
Páratartalom 83%
Légköri nyomás 1014 hPa
Látótávolság: 8000 m
Szórványos felhőzet 1000 lábon
Szakadozott felhőzet 3200 lábon

METAR: FOOL 140130Z 18007KT 150V210 8000 SCT010 BKN032 24/21 Q1014 NOSIG

Idő: 02:52 (01:52 UTC)

Előrejelzés

A jelentés 2 órával és 52 perccel ezelõtt készült, 23:00 UTC
Az előrejelzés 14-én 00 óra UTC és 15-én 06 óra UTC között érvényes
Dél-délnyugati szél 8 kt
Látótávolság 10 km, vagy több
Szórványos felhőzet 1000 lábon
Szakadozott felhőzet 3000 lábon

TAF: FOOL 132300Z 1400/1506 20008KT 9999 SCT010 BKN030

Meteorológiai megfigyelések és előrejelzések több, mint 4000 repülőtéren (METAR és TAF jelentéseket).

A térképen piros és sárga pontok jelzik az elérhető meteorológiai állomásokat.

Mozgassa az egeret a pont fölött, hogy megjelenjen az állomás neve.

Azután kattintson az időjárási megfigyelések és előrejelzések megtekintéséhez.

A térkép megváltoztatása: kattintson a fekete keresztel jelölt zöld gombra ráközelítéshez, a vonallal jelölt zöld gombra távolításhoz, vagy a zöld nyilakra a szomszédos térképek eléréséhez.


METAR-TAF: